createdAt,value
2023-05-14T04:26:45.782Z,101016.47
2023-05-14T04:29:13.382Z,101014.16
2023-05-14T04:31:42.103Z,101014.38
2023-05-14T04:34:09.436Z,101016.72
2023-05-14T04:36:36.734Z,101017.97
2023-05-14T04:39:04.498Z,101012.69
2023-05-14T04:41:32.177Z,101012.47
2023-05-14T04:44:04.131Z,101018.81
2023-05-14T04:46:31.933Z,101020.72
2023-05-14T04:48:59.254Z,101016.31
2023-05-14T04:51:27.026Z,101014.19
2023-05-14T04:53:54.288Z,101023.22
2023-05-14T04:56:21.966Z,101027.47
2023-05-14T04:58:49.633Z,101021.56
2023-05-14T05:01:16.945Z,101024.13
2023-05-14T05:03:44.774Z,101022.34
2023-05-14T05:06:12.153Z,101020.81
2023-05-14T05:08:41.008Z,101025.00
2023-05-14T05:11:08.810Z,101024.34
2023-05-14T05:13:36.095Z,101015.44
2023-05-14T05:16:03.986Z,101028.53
2023-05-14T05:18:31.402Z,101023.16
2023-05-14T05:20:59.725Z,101021.66
2023-05-14T05:23:27.441Z,101035.19
2023-05-14T05:25:54.770Z,101030.38
2023-05-14T05:28:23.033Z,101039.22
2023-05-14T05:30:50.295Z,101029.66
2023-05-14T05:33:17.542Z,101028.94
2023-05-14T05:35:45.534Z,101039.81
2023-05-14T05:38:12.874Z,101039.09
2023-05-14T05:40:40.560Z,101035.53
2023-05-14T05:43:07.934Z,101029.19
2023-05-14T05:45:35.187Z,101032.75
2023-05-14T05:48:03.053Z,101021.97
2023-05-14T05:50:31.647Z,101025.72
2023-05-14T05:53:01.536Z,101020.03
2023-05-14T05:55:29.987Z,101024.34
2023-05-14T05:57:57.414Z,101025.00
2023-05-14T06:00:25.825Z,101023.03
2023-05-14T06:02:53.632Z,101023.50
2023-05-14T06:05:21.303Z,101020.03
2023-05-14T06:07:48.711Z,101018.13
2023-05-14T06:10:16.175Z,101017.00
2023-05-14T06:12:43.473Z,101014.91
2023-05-14T06:15:12.165Z,101012.56
2023-05-14T06:17:40.022Z,101013.41
2023-05-14T06:20:08.964Z,101005.75
2023-05-14T06:22:36.789Z,101015.66
2023-05-14T06:25:04.855Z,101009.03
2023-05-14T06:27:32.295Z,101018.34
2023-05-14T06:29:59.613Z,101019.41
2023-05-14T06:32:26.984Z,101019.97
2023-05-14T06:34:54.760Z,101021.53
2023-05-14T06:37:22.250Z,101027.50
2023-05-14T06:39:52.410Z,101024.59
2023-05-14T06:42:20.057Z,101023.16
2023-05-14T06:44:48.313Z,101025.59
2023-05-14T06:47:15.591Z,101031.78
2023-05-14T06:49:43.363Z,101034.06
2023-05-14T06:52:10.768Z,101035.09
2023-05-14T06:54:38.095Z,101036.44
2023-05-14T06:57:05.959Z,101032.78
2023-05-14T06:59:33.364Z,101033.84
2023-05-14T07:02:01.404Z,101038.19
2023-05-14T07:04:29.361Z,101033.06
2023-05-14T07:06:56.615Z,101033.50
2023-05-14T07:09:24.854Z,101031.25
2023-05-14T07:11:53.023Z,101033.34
2023-05-14T07:14:20.358Z,101037.88
2023-05-14T07:16:47.838Z,101025.84
2023-05-14T07:19:15.797Z,101030.91
2023-05-14T07:21:43.075Z,101034.06
2023-05-14T07:24:10.931Z,101028.63
2023-05-14T07:26:39.400Z,101031.56
2023-05-14T07:29:07.374Z,101028.34
2023-05-14T07:31:35.130Z,101019.22
2023-05-14T07:34:03.349Z,101017.66
2023-05-14T07:36:30.888Z,101014.75
2023-05-14T07:38:58.312Z,101018.13
2023-05-14T07:41:25.580Z,101012.44
2023-05-14T07:43:52.945Z,101016.13
2023-05-14T07:46:20.896Z,101013.34
2023-05-14T07:48:48.690Z,101010.50
2023-05-14T07:51:16.164Z,101006.78
2023-05-14T07:53:43.572Z,101000.72
2023-05-14T07:56:11.099Z,101000.91
2023-05-14T07:58:38.867Z,101003.47
2023-05-14T08:01:09.137Z,100989.16
2023-05-14T08:03:37.178Z,101001.88
2023-05-14T08:06:05.804Z,100989.59
2023-05-14T08:08:33.884Z,100989.75
2023-05-14T08:11:02.203Z,100980.88
2023-05-14T08:13:29.875Z,100989.59
2023-05-14T08:15:57.300Z,100985.06
2023-05-14T08:18:24.781Z,100983.75
2023-05-14T08:20:53.098Z,100983.47
2023-05-14T08:23:20.527Z,100980.81
2023-05-14T08:25:48.290Z,100983.34
2023-05-14T08:28:16.566Z,100976.31
2023-05-14T08:30:43.867Z,100983.16
2023-05-14T08:33:11.686Z,100974.72
2023-05-14T08:35:39.518Z,100980.00
2023-05-14T08:38:07.282Z,100972.78
2023-05-14T08:40:34.987Z,100975.28
2023-05-14T08:43:03.600Z,100967.56
2023-05-14T08:45:34.215Z,100964.00
2023-05-14T08:48:05.649Z,100967.22
2023-05-14T08:50:33.522Z,100959.88
2023-05-14T08:53:01.065Z,100959.97
2023-05-14T08:55:30.563Z,100950.75
2023-05-14T08:57:57.927Z,100956.16
2023-05-14T09:00:26.549Z,100954.59
2023-05-14T09:02:55.091Z,100945.63
2023-05-14T09:05:24.765Z,100943.56
2023-05-14T09:07:52.210Z,100943.88
2023-05-14T09:10:22.280Z,100939.22
2023-05-14T09:12:51.517Z,100939.44
2023-05-14T09:15:19.065Z,100935.03
2023-05-14T09:17:48.034Z,100936.06
2023-05-14T09:20:16.228Z,100928.28
2023-05-14T09:22:43.673Z,100928.94
2023-05-14T09:25:14.921Z,100932.59
2023-05-14T09:27:42.783Z,100928.09
2023-05-14T09:30:12.941Z,100926.69
2023-05-14T09:32:44.068Z,100927.84
2023-05-14T09:35:21.494Z,100925.97
2023-05-14T09:37:53.696Z,100928.66
2023-05-14T09:40:23.310Z,100927.34
2023-05-14T09:42:52.173Z,100925.69
2023-05-14T09:45:20.080Z,100921.28
2023-05-14T09:47:47.624Z,100912.59
2023-05-14T09:50:15.112Z,100915.41
2023-05-14T09:52:42.909Z,100919.13
2023-05-14T09:55:11.094Z,100912.31
2023-05-14T09:57:38.899Z,100909.19
2023-05-14T10:00:08.756Z,100893.44
2023-05-14T10:03:08.099Z,100889.28
2023-05-14T10:05:37.009Z,100893.75
2023-05-14T10:08:16.224Z,100887.56
2023-05-14T10:10:43.591Z,100877.56
2023-05-14T10:13:16.891Z,100876.50
2023-05-14T10:15:49.529Z,100881.03
2023-05-14T10:18:19.849Z,100883.47
2023-05-14T10:21:03.359Z,100887.16
2023-05-14T10:23:31.007Z,100874.22
2023-05-14T10:25:59.672Z,100883.41
2023-05-14T10:28:28.106Z,100878.16
2023-05-14T10:30:55.490Z,100878.88
2023-05-14T10:33:23.664Z,100870.50
2023-05-14T10:35:57.285Z,100868.16
2023-05-14T10:38:36.321Z,100867.13
2023-05-14T10:41:16.555Z,100856.91
2023-05-14T10:43:44.524Z,100857.59
2023-05-14T10:46:14.278Z,100849.03
2023-05-14T10:48:43.535Z,100857.91
2023-05-14T10:51:12.603Z,100845.66
2023-05-14T10:53:42.363Z,100847.41
2023-05-14T10:56:12.452Z,100846.19
2023-05-14T10:58:45.079Z,100837.72
2023-05-14T11:01:13.691Z,100846.56
2023-05-14T11:03:46.918Z,100838.22
2023-05-14T11:06:15.489Z,100830.34
2023-05-14T11:08:44.396Z,100841.94
2023-05-14T11:11:12.113Z,100834.19
2023-05-14T11:13:41.264Z,100831.56
2023-05-14T11:16:21.705Z,100832.50
2023-05-14T11:19:01.960Z,100827.06
2023-05-14T11:21:30.385Z,100834.44
2023-05-14T11:24:00.926Z,100832.78
2023-05-14T11:26:28.292Z,100830.41
2023-05-14T11:28:56.074Z,100817.50
2023-05-14T11:31:24.264Z,100812.75
2023-05-14T11:33:53.465Z,100809.91
2023-05-14T11:36:21.297Z,100803.19
2023-05-14T11:38:51.412Z,100800.28
2023-05-14T11:41:21.338Z,100805.00
2023-05-14T11:43:49.422Z,100800.91
2023-05-14T11:46:21.765Z,100798.25
2023-05-14T11:48:49.271Z,100795.69
2023-05-14T11:51:16.826Z,100788.75
2023-05-14T11:53:46.450Z,100792.59
2023-05-14T11:56:13.967Z,100785.59
2023-05-14T11:58:41.822Z,100783.00
2023-05-14T12:01:14.179Z,100782.78
2023-05-14T12:03:42.343Z,100772.28
2023-05-14T12:06:09.883Z,100773.72
2023-05-14T12:08:37.717Z,100770.22
2023-05-14T12:11:05.726Z,100768.97
2023-05-14T12:13:33.902Z,100769.59
2023-05-14T12:16:02.656Z,100768.72
2023-05-14T12:18:32.891Z,100765.09
2023-05-14T12:21:04.522Z,100763.84
2023-05-14T12:23:32.785Z,100754.84
2023-05-14T12:26:06.376Z,100759.22
2023-05-14T12:28:37.939Z,100749.16
2023-05-14T12:31:06.411Z,100753.50
2023-05-14T12:33:33.869Z,100749.53
2023-05-14T12:36:07.414Z,100750.19
2023-05-14T12:38:48.704Z,100751.66
2023-05-14T12:41:17.232Z,100744.06
2023-05-14T12:43:47.377Z,100749.47
2023-05-14T12:46:15.539Z,100743.69
2023-05-14T12:48:43.204Z,100742.78
2023-05-14T12:51:11.051Z,100743.31
2023-05-14T12:53:38.490Z,100740.59
2023-05-14T12:56:06.414Z,100727.63
2023-05-14T12:58:33.783Z,100735.03
2023-05-14T13:01:01.613Z,100733.09
2023-05-14T13:03:29.602Z,100734.38
2023-05-14T13:05:57.426Z,100730.22
2023-05-14T13:08:26.121Z,100729.09
2023-05-14T13:10:54.830Z,100724.63
2023-05-14T13:13:22.969Z,100722.44
2023-05-14T13:15:50.295Z,100722.63
2023-05-14T13:18:17.776Z,100727.22
2023-05-14T13:20:47.313Z,100718.53
2023-05-14T13:23:15.712Z,100727.28
2023-05-14T13:25:43.467Z,100724.03
2023-05-14T13:28:10.773Z,100712.84
2023-05-14T13:30:38.262Z,100719.81
2023-05-14T13:33:06.082Z,100715.19
2023-05-14T13:35:34.747Z,100707.88
2023-05-14T13:38:02.168Z,100713.63
2023-05-14T13:40:29.902Z,100705.03
2023-05-14T13:42:57.246Z,100705.66
2023-05-14T13:45:25.857Z,100711.91
2023-05-14T13:47:53.840Z,100714.41
2023-05-14T13:50:22.151Z,100719.66
2023-05-14T13:52:49.518Z,100707.59
2023-05-14T13:55:17.318Z,100720.53
2023-05-14T13:57:44.753Z,100717.50
2023-05-14T14:00:13.438Z,100713.94
2023-05-14T14:02:41.151Z,100711.66
2023-05-14T14:05:09.522Z,100704.59
2023-05-14T14:07:37.379Z,100699.59
2023-05-14T14:10:05.654Z,100692.31
2023-05-14T14:12:33.597Z,100688.13
2023-05-14T14:15:02.807Z,100690.63
2023-05-14T14:17:34.008Z,100678.81
2023-05-14T14:20:01.391Z,100677.75
2023-05-14T14:22:29.558Z,100672.22
2023-05-14T14:24:57.630Z,100669.50
2023-05-14T14:27:26.000Z,100671.88
2023-05-14T14:29:53.948Z,100664.59
2023-05-14T14:32:21.324Z,100655.28
2023-05-14T14:34:49.076Z,100651.72
2023-05-14T14:37:16.442Z,100639.88
2023-05-14T14:39:44.222Z,100643.00
2023-05-14T14:42:12.530Z,100645.13
2023-05-14T14:44:41.403Z,100645.97
2023-05-14T14:47:09.151Z,100648.59
2023-05-14T14:49:36.976Z,100655.25
2023-05-14T14:52:05.223Z,100649.41
2023-05-14T14:54:33.107Z,100645.97
2023-05-14T14:57:01.075Z,100643.53
2023-05-14T14:59:28.525Z,100650.41
2023-05-14T15:01:56.028Z,100648.56
2023-05-14T15:04:23.596Z,100648.34
2023-05-14T15:06:51.244Z,100650.38
2023-05-14T15:09:20.281Z,100655.84
2023-05-14T15:11:48.054Z,100657.53
2023-05-14T15:14:16.401Z,100653.28
2023-05-14T15:16:44.234Z,100654.03
2023-05-14T15:19:12.423Z,100651.75
2023-05-14T15:21:39.942Z,100641.59
2023-05-14T15:24:10.992Z,100641.91
2023-05-14T15:26:38.854Z,100639.97
2023-05-14T15:29:07.509Z,100647.06
2023-05-14T15:31:35.543Z,100650.34
2023-05-14T15:34:03.610Z,100649.50
2023-05-14T15:36:31.051Z,100643.31
2023-05-14T15:39:00.071Z,100653.91
2023-05-14T15:41:28.864Z,100640.22
2023-05-14T15:43:58.165Z,100644.97
2023-05-14T15:46:26.654Z,100654.66
2023-05-14T15:48:54.226Z,100644.41
2023-05-14T15:51:21.940Z,100649.16
2023-05-14T15:53:49.818Z,100650.50
2023-05-14T15:56:17.246Z,100655.16
2023-05-14T15:58:44.590Z,100664.00
2023-05-14T16:01:12.536Z,100649.66
2023-05-14T16:03:40.027Z,100655.66
2023-05-14T16:06:08.431Z,100658.41
2023-05-14T16:08:35.928Z,100659.59
2023-05-14T16:11:03.391Z,100659.47
2023-05-14T16:13:31.142Z,100661.38
2023-05-14T16:15:59.807Z,100666.41
2023-05-14T16:18:27.856Z,100663.19
2023-05-14T16:20:55.990Z,100663.19
2023-05-14T16:23:23.478Z,100673.06
2023-05-14T16:25:51.441Z,100669.97
2023-05-14T16:28:19.320Z,100666.59
2023-05-14T16:30:46.674Z,100676.72
2023-05-14T16:33:13.918Z,100673.97
2023-05-14T16:35:41.634Z,100678.28
2023-05-14T16:38:08.898Z,100680.09
2023-05-14T16:40:36.297Z,100682.59
2023-05-14T16:43:03.729Z,100696.09
2023-05-14T16:45:32.654Z,100688.91
2023-05-14T16:48:01.273Z,100694.31
2023-05-14T16:50:28.842Z,100680.66
2023-05-14T16:52:56.173Z,100679.81
2023-05-14T16:55:25.173Z,100674.16
2023-05-14T16:57:52.550Z,100676.25
2023-05-14T17:00:19.980Z,100671.47
2023-05-14T17:02:49.823Z,100676.25
2023-05-14T17:05:18.482Z,100664.66
2023-05-14T17:07:45.883Z,100667.63
2023-05-14T17:10:13.695Z,100666.19
2023-05-14T17:12:40.961Z,100665.56
2023-05-14T17:15:08.836Z,100665.09
2023-05-14T17:17:36.721Z,100660.28
2023-05-14T17:20:08.310Z,100661.91
2023-05-14T17:22:35.705Z,100661.41
2023-05-14T17:25:03.294Z,100681.75
2023-05-14T17:27:33.152Z,100677.59
2023-05-14T17:30:01.283Z,100679.28
2023-05-14T17:32:29.550Z,100673.75
2023-05-14T17:34:57.303Z,100665.50
2023-05-14T17:37:25.305Z,100669.25
2023-05-14T17:39:53.507Z,100673.69
2023-05-14T17:42:21.132Z,100666.34
2023-05-14T17:44:49.160Z,100674.19
2023-05-14T17:47:16.983Z,100677.88
2023-05-14T17:49:44.781Z,100677.75
2023-05-14T17:52:12.151Z,100671.00
2023-05-14T17:54:39.938Z,100681.03
2023-05-14T17:57:07.292Z,100679.09
2023-05-14T17:59:35.059Z,100678.56
2023-05-14T18:02:04.446Z,100675.00
2023-05-14T18:04:31.770Z,100686.88
2023-05-14T18:07:01.391Z,100679.06
2023-05-14T18:09:29.109Z,100680.28
2023-05-14T18:11:57.119Z,100678.31
2023-05-14T18:14:24.952Z,100670.97
2023-05-14T18:16:52.288Z,100672.09
2023-05-14T18:19:20.271Z,100684.06
2023-05-14T18:21:49.520Z,100692.75
2023-05-14T18:24:16.868Z,100690.78
2023-05-14T18:26:44.261Z,100678.78
2023-05-14T18:29:11.710Z,100693.44
2023-05-14T18:31:39.210Z,100694.75
2023-05-14T18:34:06.992Z,100691.53
2023-05-14T18:36:34.471Z,100696.66
2023-05-14T18:39:01.801Z,100695.06
2023-05-14T18:41:29.576Z,100694.81
2023-05-14T18:43:58.002Z,100688.97
2023-05-14T18:46:25.801Z,100689.44
2023-05-14T18:48:53.841Z,100694.97
2023-05-14T18:51:21.721Z,100706.69
2023-05-14T18:53:49.078Z,100713.09
2023-05-14T18:56:16.819Z,100706.09
2023-05-14T18:58:44.608Z,100699.84
2023-05-14T19:01:12.445Z,100697.81
2023-05-14T19:03:42.133Z,100698.84
2023-05-14T19:06:10.047Z,100707.59
2023-05-14T19:08:38.173Z,100705.38
2023-05-14T19:11:06.028Z,100714.13
2023-05-14T19:13:33.589Z,100712.75
2023-05-14T19:16:02.160Z,100720.22
2023-05-14T19:18:30.205Z,100730.34
2023-05-14T19:20:58.918Z,100737.63
2023-05-14T19:23:26.568Z,100731.66
2023-05-14T19:25:53.897Z,100749.19
2023-05-14T19:28:21.329Z,100756.41
2023-05-14T19:30:51.140Z,100767.69
2023-05-14T19:33:19.712Z,100789.66
2023-05-14T19:35:47.318Z,100797.47
2023-05-14T19:38:15.389Z,100807.69
2023-05-14T19:40:44.393Z,100797.38
2023-05-14T19:43:13.125Z,100783.47
2023-05-14T19:45:42.712Z,100793.63
2023-05-14T19:48:12.399Z,100798.28
2023-05-14T19:50:41.487Z,100805.72
2023-05-14T19:53:09.558Z,100802.31
2023-05-14T19:55:37.775Z,100797.38
2023-05-14T19:58:05.559Z,100805.31
2023-05-14T20:00:34.695Z,100804.72
2023-05-14T20:03:03.162Z,100803.41
2023-05-14T20:05:30.645Z,100783.34
2023-05-14T20:07:58.344Z,100763.13
2023-05-14T20:10:26.023Z,100767.28
2023-05-14T20:12:54.462Z,100781.84
2023-05-14T20:15:22.397Z,100779.28
2023-05-14T20:17:50.485Z,100782.38
2023-05-14T20:20:18.649Z,100798.00
2023-05-14T20:22:46.113Z,100792.88
2023-05-14T20:25:14.476Z,100787.00
2023-05-14T20:27:42.409Z,100781.41
2023-05-14T20:30:10.917Z,100777.44
2023-05-14T20:32:38.791Z,100786.16
2023-05-14T20:35:06.690Z,100787.72
2023-05-14T20:37:34.987Z,100794.59
2023-05-14T20:40:04.618Z,100783.66
2023-05-14T20:42:32.798Z,100785.25
2023-05-14T20:45:00.698Z,100776.41
2023-05-14T20:47:30.504Z,100767.75
2023-05-14T20:49:58.345Z,100758.19
2023-05-14T20:52:26.565Z,100739.66
2023-05-14T20:54:54.322Z,100728.78
2023-05-14T20:57:22.688Z,100737.63
2023-05-14T20:59:50.453Z,100734.47
2023-05-14T21:02:18.529Z,100745.84
2023-05-14T21:04:46.464Z,100751.47
2023-05-14T21:07:13.897Z,100753.16
2023-05-14T21:09:41.193Z,100756.38
2023-05-14T21:12:09.605Z,100757.41
2023-05-14T21:14:36.889Z,100754.53
2023-05-14T21:17:05.232Z,100742.16
2023-05-14T21:19:32.510Z,100736.38
2023-05-14T21:21:59.792Z,100727.72
2023-05-14T21:24:27.898Z,100730.13
2023-05-14T21:26:55.210Z,100734.50
2023-05-14T21:29:23.118Z,100753.56
2023-05-14T21:31:50.534Z,100759.28
2023-05-14T21:34:18.252Z,100754.91
2023-05-14T21:36:45.925Z,100748.94
2023-05-14T21:39:13.934Z,100751.44
2023-05-14T21:41:41.694Z,100752.31
2023-05-14T21:44:09.435Z,100739.03
2023-05-14T21:46:36.673Z,100738.47
2023-05-14T21:49:04.959Z,100732.34
2023-05-14T21:51:33.094Z,100732.56
2023-05-14T21:54:00.928Z,100741.19
2023-05-14T21:56:28.354Z,100739.50
2023-05-14T21:58:56.024Z,100742.06
2023-05-14T22:01:23.894Z,100741.78
2023-05-14T22:03:51.461Z,100739.19
2023-05-14T22:06:19.416Z,100737.59
2023-05-14T22:08:46.741Z,100736.59
2023-05-14T22:11:13.974Z,100736.00
2023-05-14T22:13:41.725Z,100726.50
2023-05-14T22:16:13.350Z,100726.38
2023-05-14T22:18:41.515Z,100727.31
2023-05-14T22:21:09.058Z,100732.13
2023-05-14T22:23:36.714Z,100734.34
2023-05-14T22:26:04.428Z,100727.16
2023-05-14T22:28:31.690Z,100724.28
2023-05-14T22:30:59.885Z,100711.31
2023-05-14T22:33:27.494Z,100701.19
2023-05-14T22:35:55.794Z,100704.13
2023-05-14T22:38:23.973Z,100695.34
2023-05-14T22:40:51.367Z,100700.81
2023-05-14T22:43:18.885Z,100706.00
2023-05-14T22:45:46.212Z,100709.53
2023-05-14T22:48:13.494Z,100709.66
2023-05-14T22:50:41.554Z,100711.91
2023-05-14T22:53:08.945Z,100705.38
2023-05-14T22:55:36.359Z,100718.19
2023-05-14T22:58:03.943Z,100710.06
2023-05-14T23:00:31.635Z,100715.34
2023-05-14T23:02:59.387Z,100712.19
2023-05-14T23:05:27.063Z,100710.09
2023-05-14T23:07:55.376Z,100718.94
2023-05-14T23:10:22.822Z,100708.06
2023-05-14T23:12:50.965Z,100710.22
2023-05-14T23:15:18.307Z,100712.66
2023-05-14T23:17:45.766Z,100703.56
2023-05-14T23:20:13.658Z,100700.75
2023-05-14T23:22:40.989Z,100701.03
2023-05-14T23:25:08.850Z,100690.75
2023-05-14T23:27:36.430Z,100693.72
2023-05-14T23:30:04.893Z,100696.72
2023-05-14T23:32:32.320Z,100691.28
2023-05-14T23:34:59.633Z,100686.50
2023-05-14T23:37:27.096Z,100686.69
2023-05-14T23:39:54.848Z,100682.88
2023-05-14T23:42:22.277Z,100677.41
2023-05-14T23:44:50.141Z,100677.03
2023-05-14T23:47:18.013Z,100680.41
2023-05-14T23:49:45.821Z,100672.88
2023-05-14T23:52:13.521Z,100677.94
2023-05-14T23:54:40.906Z,100680.50
2023-05-14T23:57:08.621Z,100680.69
2023-05-14T23:59:36.446Z,100676.94
